This is the latest recevied weather packets stored in our database for station/object DL6SW-10. If no packets are shown the sender has not sent any weather packets the latest 10 day(s).
| Time | Temp. | Humidity | Pressure | Rain* | Wind** | Luminosity | Snow |
|---|---|---|---|---|---|---|---|
| 1777313965 | 18.89° C | 26% | 1020.3 hPa | - | - | - | - |
| 1777313965 | 18.89° C | 26% | 1020.3 hPa | - | - | - | - |
| 1777313965 | 18.89° C | 26% | 1020.3 hPa | - | - | - | - |
| 1777313965 | 18.89° C | 26% | 1020.3 hPa | - | - | - | - |
| 1777313965 | 18.89° C | 26% | 1020.3 hPa | - | - | - | - |
| 1777313965 | 18.89° C | 26% | 1020.3 hPa | - | - | - | - |
| 1777313965 | 18.89° C | 26% | 1020.3 hPa | - | - | - | - |
| 1777313965 | 18.89° C | 26% | 1020.3 hPa | - | - | - | - |
| 1777313965 | 18.89° C | 26% | 1020.3 hPa | - | - | - | - |
| 1777313965 | 18.89° C | 26% | 1020.3 hPa | - | - | - | - |
| 1777313110 | 19.44° C | 25% | 1020.2 hPa | - | - | - | - |
| 1777311262 | 21.11° C | 23% | 1019.8 hPa | - | - | - | - |
| 1777310360 | 21.67° C | 22% | 1020.2 hPa | - | - | - | - |
| 1777306760 | 23.89° C | 19% | 1020.3 hPa | - | - | - | - |
| 1777304056 | 27.78° C | 15% | 1019.9 hPa | - | - | - | - |
| 1777304049 | 27.78° C | 15% | 1019.9 hPa | - | - | - | - |
| 1777303148 | 28.33° C | 15% | 1020 hPa | - | - | - | - |
| 1777300461 | 33.33° C | 13% | 1020.4 hPa | - | - | - | - |
| 1777300441 | 33.33° C | 13% | 1020.4 hPa | - | - | - | - |
| 1777299559 | 36.67° C | 12% | 1020.4 hPa | - | - | - | - |
| 1777299540 | 36.67° C | 12% | 1020.4 hPa | - | - | - | - |
| 1777298712 | 42.22° C | 12% | 1020.6 hPa | - | - | - | - |
| 1777295937 | 36.11° C | 15% | 1021 hPa | - | - | - | - |
| 1777295933 | 36.11° C | 15% | 1021 hPa | - | - | - | - |
| 1777295074 | 35.56° C | 16% | 1021.7 hPa | - | - | - | - |
* Rain since midnight (hover to see other rain measurements)
** Current wind speed in m/s (hover to see current wind gust speed)